sensor_id;sensor_type;location;lat;lon;timestamp;P1;durP1;ratioP1;P2;durP2;ratioP2
31368;SDS011;18004;48.416;10.066;2024-02-16T00:00:07;9.68;;;4.90;;
31368;SDS011;18004;48.416;10.066;2024-02-16T00:02:34;8.02;;;4.47;;
31368;SDS011;18004;48.416;10.066;2024-02-16T00:05:00;11.32;;;5.13;;
31368;SDS011;18004;48.416;10.066;2024-02-16T00:07:26;11.80;;;4.85;;
31368;SDS011;18004;48.416;10.066;2024-02-16T00:09:51;9.23;;;5.18;;
31368;SDS011;18004;48.416;10.066;2024-02-16T00:12:17;10.57;;;4.90;;
31368;SDS011;18004;48.416;10.066;2024-02-16T00:14:43;9.88;;;4.47;;
31368;SDS011;18004;48.416;10.066;2024-02-16T00:17:11;7.93;;;4.25;;
31368;SDS011;18004;48.416;10.066;2024-02-16T00:19:37;7.05;;;4.55;;
31368;SDS011;18004;48.416;10.066;2024-02-16T00:22:03;13.05;;;4.82;;
31368;SDS011;18004;48.416;10.066;2024-02-16T00:24:28;10.57;;;4.60;;
31368;SDS011;18004;48.416;10.066;2024-02-16T00:26:56;8.93;;;4.32;;
31368;SDS011;18004;48.416;10.066;2024-02-16T00:29:22;8.20;;;4.03;;
31368;SDS011;18004;48.416;10.066;2024-02-16T00:31:48;10.32;;;4.40;;
31368;SDS011;18004;48.416;10.066;2024-02-16T00:34:14;9.43;;;4.07;;
31368;SDS011;18004;48.416;10.066;2024-02-16T00:36:39;11.32;;;4.43;;
31368;SDS011;18004;48.416;10.066;2024-02-16T00:39:05;5.25;;;3.95;;
31368;SDS011;18004;48.416;10.066;2024-02-16T00:41:31;6.18;;;3.95;;
31368;SDS011;18004;48.416;10.066;2024-02-16T00:43:57;6.35;;;3.63;;
31368;SDS011;18004;48.416;10.066;2024-02-16T00:46:23;7.07;;;3.25;;
31368;SDS011;18004;48.416;10.066;2024-02-16T00:48:49;6.53;;;3.58;;
31368;SDS011;18004;48.416;10.066;2024-02-16T00:51:15;9.15;;;3.42;;
31368;SDS011;18004;48.416;10.066;2024-02-16T00:53:41;6.97;;;3.58;;
31368;SDS011;18004;48.416;10.066;2024-02-16T00:56:07;9.32;;;4.90;;
31368;SDS011;18004;48.416;10.066;2024-02-16T00:58:33;9.23;;;4.00;;
31368;SDS011;18004;48.416;10.066;2024-02-16T01:00:59;6.07;;;3.28;;
31368;SDS011;18004;48.416;10.066;2024-02-16T01:03:25;8.10;;;3.78;;
31368;SDS011;18004;48.416;10.066;2024-02-16T01:05:54;9.32;;;3.97;;
31368;SDS011;18004;48.416;10.066;2024-02-16T01:08:20;7.60;;;3.72;;
31368;SDS011;18004;48.416;10.066;2024-02-16T01:10:45;8.25;;;3.22;;
31368;SDS011;18004;48.416;10.066;2024-02-16T01:13:12;9.13;;;3.97;;
31368;SDS011;18004;48.416;10.066;2024-02-16T01:15:38;8.32;;;3.65;;
31368;SDS011;18004;48.416;10.066;2024-02-16T01:18:04;5.95;;;3.17;;
31368;SDS011;18004;48.416;10.066;2024-02-16T01:20:30;5.72;;;3.90;;
31368;SDS011;18004;48.416;10.066;2024-02-16T01:22:57;7.38;;;3.88;;
31368;SDS011;18004;48.416;10.066;2024-02-16T01:25:23;4.65;;;3.03;;
31368;SDS011;18004;48.416;10.066;2024-02-16T01:27:48;10.60;;;4.13;;
31368;SDS011;18004;48.416;10.066;2024-02-16T01:30:14;7.45;;;4.55;;
31368;SDS011;18004;48.416;10.066;2024-02-16T01:32:40;7.70;;;4.32;;
31368;SDS011;18004;48.416;10.066;2024-02-16T01:35:06;12.05;;;3.90;;
31368;SDS011;18004;48.416;10.066;2024-02-16T01:37:33;7.68;;;3.38;;
31368;SDS011;18004;48.416;10.066;2024-02-16T01:39:58;4.82;;;3.03;;
31368;SDS011;18004;48.416;10.066;2024-02-16T01:42:24;9.82;;;2.80;;
31368;SDS011;18004;48.416;10.066;2024-02-16T01:44:50;8.68;;;3.15;;
31368;SDS011;18004;48.416;10.066;2024-02-16T01:47:16;6.35;;;3.13;;
31368;SDS011;18004;48.416;10.066;2024-02-16T01:49:44;5.95;;;3.15;;
31368;SDS011;18004;48.416;10.066;2024-02-16T01:52:10;5.18;;;2.95;;
31368;SDS011;18004;48.416;10.066;2024-02-16T01:54:37;4.60;;;2.95;;
31368;SDS011;18004;48.416;10.066;2024-02-16T01:57:04;3.45;;;2.70;;
31368;SDS011;18004;48.416;10.066;2024-02-16T01:59:31;8.15;;;3.58;;
31368;SDS011;18004;48.416;10.066;2024-02-16T02:01:59;6.32;;;2.97;;
31368;SDS011;18004;48.416;10.066;2024-02-16T02:04:25;5.15;;;3.28;;
31368;SDS011;18004;48.416;10.066;2024-02-16T02:06:52;6.25;;;3.22;;
31368;SDS011;18004;48.416;10.066;2024-02-16T02:09:17;7.40;;;2.95;;
31368;SDS011;18004;48.416;10.066;2024-02-16T02:11:43;5.30;;;2.70;;
31368;SDS011;18004;48.416;10.066;2024-02-16T02:14:09;4.97;;;2.53;;
31368;SDS011;18004;48.416;10.066;2024-02-16T02:16:35;5.80;;;2.83;;
31368;SDS011;18004;48.416;10.066;2024-02-16T02:19:02;4.20;;;3.05;;
31368;SDS011;18004;48.416;10.066;2024-02-16T02:21:28;3.75;;;2.47;;
31368;SDS011;18004;48.416;10.066;2024-02-16T02:23:54;3.15;;;2.38;;
31368;SDS011;18004;48.416;10.066;2024-02-16T02:26:20;4.03;;;2.83;;
31368;SDS011;18004;48.416;10.066;2024-02-16T02:28:46;6.05;;;3.60;;
31368;SDS011;18004;48.416;10.066;2024-02-16T02:31:12;9.63;;;4.30;;
31368;SDS011;18004;48.416;10.066;2024-02-16T02:33:38;12.35;;;4.72;;
31368;SDS011;18004;48.416;10.066;2024-02-16T02:36:04;8.65;;;4.40;;
31368;SDS011;18004;48.416;10.066;2024-02-16T02:38:30;7.80;;;4.03;;
31368;SDS011;18004;48.416;10.066;2024-02-16T02:40:56;5.00;;;3.50;;
31368;SDS011;18004;48.416;10.066;2024-02-16T02:43:22;5.63;;;3.10;;
31368;SDS011;18004;48.416;10.066;2024-02-16T02:45:48;8.10;;;4.32;;
31368;SDS011;18004;48.416;10.066;2024-02-16T02:48:14;6.82;;;3.60;;
31368;SDS011;18004;48.416;10.066;2024-02-16T02:50:39;4.22;;;2.92;;
31368;SDS011;18004;48.416;10.066;2024-02-16T02:53:05;3.90;;;2.97;;
31368;SDS011;18004;48.416;10.066;2024-02-16T02:55:31;7.35;;;3.83;;
31368;SDS011;18004;48.416;10.066;2024-02-16T02:57:57;7.38;;;3.95;;
31368;SDS011;18004;48.416;10.066;2024-02-16T03:00:23;6.40;;;3.30;;
31368;SDS011;18004;48.416;10.066;2024-02-16T03:02:49;5.45;;;3.72;;
31368;SDS011;18004;48.416;10.066;2024-02-16T03:05:14;12.35;;;3.83;;
31368;SDS011;18004;48.416;10.066;2024-02-16T03:07:40;9.85;;;4.03;;
31368;SDS011;18004;48.416;10.066;2024-02-16T03:10:06;19.20;;;5.25;;
31368;SDS011;18004;48.416;10.066;2024-02-16T03:12:34;11.45;;;5.50;;
31368;SDS011;18004;48.416;10.066;2024-02-16T03:15:00;11.38;;;4.65;;
31368;SDS011;18004;48.416;10.066;2024-02-16T03:17:26;5.32;;;3.70;;
31368;SDS011;18004;48.416;10.066;2024-02-16T03:19:52;5.63;;;3.63;;
31368;SDS011;18004;48.416;10.066;2024-02-16T03:22:17;4.15;;;2.92;;
31368;SDS011;18004;48.416;10.066;2024-02-16T03:24:43;4.35;;;2.95;;
31368;SDS011;18004;48.416;10.066;2024-02-16T03:27:10;5.05;;;2.95;;
31368;SDS011;18004;48.416;10.066;2024-02-16T03:29:37;5.63;;;3.20;;
31368;SDS011;18004;48.416;10.066;2024-02-16T03:32:02;6.82;;;3.20;;
31368;SDS011;18004;48.416;10.066;2024-02-16T03:34:28;4.47;;;3.03;;
31368;SDS011;18004;48.416;10.066;2024-02-16T03:36:55;7.20;;;3.40;;
31368;SDS011;18004;48.416;10.066;2024-02-16T03:39:20;6.28;;;3.63;;
31368;SDS011;18004;48.416;10.066;2024-02-16T03:41:47;5.82;;;3.03;;
31368;SDS011;18004;48.416;10.066;2024-02-16T03:44:14;7.70;;;3.65;;
31368;SDS011;18004;48.416;10.066;2024-02-16T03:46:41;7.47;;;3.30;;
31368;SDS011;18004;48.416;10.066;2024-02-16T03:49:08;8.93;;;3.47;;
31368;SDS011;18004;48.416;10.066;2024-02-16T03:51:35;4.90;;;3.58;;
31368;SDS011;18004;48.416;10.066;2024-02-16T03:54:01;6.88;;;3.13;;
31368;SDS011;18004;48.416;10.066;2024-02-16T03:56:29;4.82;;;3.38;;
31368;SDS011;18004;48.416;10.066;2024-02-16T03:58:55;4.90;;;3.03;;
31368;SDS011;18004;48.416;10.066;2024-02-16T04:01:21;7.05;;;3.33;;
31368;SDS011;18004;48.416;10.066;2024-02-16T04:03:47;5.90;;;2.85;;
31368;SDS011;18004;48.416;10.066;2024-02-16T04:06:12;6.95;;;3.65;;
31368;SDS011;18004;48.416;10.066;2024-02-16T04:08:38;10.27;;;3.95;;
31368;SDS011;18004;48.416;10.066;2024-02-16T04:11:05;7.63;;;4.50;;
31368;SDS011;18004;48.416;10.066;2024-02-16T04:13:31;10.88;;;4.35;;
31368;SDS011;18004;48.416;10.066;2024-02-16T04:15:57;5.88;;;3.90;;
31368;SDS011;18004;48.416;10.066;2024-02-16T04:18:23;8.85;;;4.53;;
31368;SDS011;18004;48.416;10.066;2024-02-16T04:20:49;8.73;;;4.50;;
31368;SDS011;18004;48.416;10.066;2024-02-16T04:23:15;10.55;;;4.38;;
31368;SDS011;18004;48.416;10.066;2024-02-16T04:25:40;8.30;;;5.47;;
31368;SDS011;18004;48.416;10.066;2024-02-16T04:28:06;11.48;;;4.93;;
31368;SDS011;18004;48.416;10.066;2024-02-16T04:30:32;11.35;;;4.60;;
31368;SDS011;18004;48.416;10.066;2024-02-16T04:32:58;6.20;;;3.50;;
31368;SDS011;18004;48.416;10.066;2024-02-16T04:35:23;4.75;;;3.17;;
31368;SDS011;18004;48.416;10.066;2024-02-16T04:37:49;5.55;;;3.00;;
31368;SDS011;18004;48.416;10.066;2024-02-16T04:40:16;3.80;;;2.72;;
31368;SDS011;18004;48.416;10.066;2024-02-16T04:42:42;7.57;;;3.38;;
31368;SDS011;18004;48.416;10.066;2024-02-16T04:45:10;4.43;;;2.67;;
31368;SDS011;18004;48.416;10.066;2024-02-16T04:47:37;8.65;;;2.65;;
31368;SDS011;18004;48.416;10.066;2024-02-16T04:50:04;7.80;;;3.08;;
31368;SDS011;18004;48.416;10.066;2024-02-16T04:52:30;5.97;;;3.20;;
31368;SDS011;18004;48.416;10.066;2024-02-16T04:54:56;5.80;;;3.10;;
31368;SDS011;18004;48.416;10.066;2024-02-16T04:57:22;5.68;;;3.03;;
31368;SDS011;18004;48.416;10.066;2024-02-16T04:59:47;5.15;;;3.10;;
31368;SDS011;18004;48.416;10.066;2024-02-16T05:02:13;5.25;;;2.95;;
31368;SDS011;18004;48.416;10.066;2024-02-16T05:04:39;5.13;;;3.03;;
31368;SDS011;18004;48.416;10.066;2024-02-16T05:07:05;6.05;;;3.45;;
31368;SDS011;18004;48.416;10.066;2024-02-16T05:09:33;7.38;;;3.45;;
31368;SDS011;18004;48.416;10.066;2024-02-16T05:11:59;8.48;;;3.47;;
31368;SDS011;18004;48.416;10.066;2024-02-16T05:14:25;5.55;;;2.45;;
31368;SDS011;18004;48.416;10.066;2024-02-16T05:16:51;6.63;;;3.20;;
31368;SDS011;18004;48.416;10.066;2024-02-16T05:19:16;6.22;;;3.72;;
31368;SDS011;18004;48.416;10.066;2024-02-16T05:21:43;6.72;;;3.42;;
31368;SDS011;18004;48.416;10.066;2024-02-16T05:24:09;5.32;;;3.00;;
31368;SDS011;18004;48.416;10.066;2024-02-16T05:26:36;4.75;;;2.83;;
31368;SDS011;18004;48.416;10.066;2024-02-16T05:29:02;5.47;;;3.33;;
31368;SDS011;18004;48.416;10.066;2024-02-16T05:31:28;3.97;;;2.88;;
31368;SDS011;18004;48.416;10.066;2024-02-16T05:33:54;6.40;;;3.55;;
31368;SDS011;18004;48.416;10.066;2024-02-16T05:36:20;5.90;;;3.10;;
31368;SDS011;18004;48.416;10.066;2024-02-16T05:38:49;7.28;;;3.85;;
31368;SDS011;18004;48.416;10.066;2024-02-16T05:41:15;11.57;;;3.80;;
31368;SDS011;18004;48.416;10.066;2024-02-16T05:43:43;7.40;;;3.38;;
31368;SDS011;18004;48.416;10.066;2024-02-16T05:46:16;7.55;;;3.75;;
31368;SDS011;18004;48.416;10.066;2024-02-16T05:48:43;4.80;;;3.20;;
31368;SDS011;18004;48.416;10.066;2024-02-16T05:51:09;6.97;;;3.65;;
31368;SDS011;18004;48.416;10.066;2024-02-16T05:53:37;4.00;;;3.13;;
31368;SDS011;18004;48.416;10.066;2024-02-16T05:56:04;12.30;;;3.58;;
31368;SDS011;18004;48.416;10.066;2024-02-16T05:58:30;4.72;;;3.50;;
31368;SDS011;18004;48.416;10.066;2024-02-16T06:00:56;5.40;;;3.35;;
31368;SDS011;18004;48.416;10.066;2024-02-16T06:03:22;5.40;;;3.42;;
31368;SDS011;18004;48.416;10.066;2024-02-16T06:05:48;4.30;;;3.05;;
31368;SDS011;18004;48.416;10.066;2024-02-16T06:08:14;5.00;;;3.40;;
31368;SDS011;18004;48.416;10.066;2024-02-16T06:10:44;4.28;;;3.05;;
31368;SDS011;18004;48.416;10.066;2024-02-16T06:13:16;3.92;;;3.28;;
31368;SDS011;18004;48.416;10.066;2024-02-16T06:15:43;7.18;;;3.30;;
31368;SDS011;18004;48.416;10.066;2024-02-16T06:18:09;6.22;;;3.20;;
31368;SDS011;18004;48.416;10.066;2024-02-16T06:20:34;6.30;;;3.30;;
31368;SDS011;18004;48.416;10.066;2024-02-16T06:23:00;5.13;;;3.75;;
31368;SDS011;18004;48.416;10.066;2024-02-16T06:25:27;9.05;;;3.95;;
31368;SDS011;18004;48.416;10.066;2024-02-16T06:27:52;8.57;;;4.32;;
31368;SDS011;18004;48.416;10.066;2024-02-16T06:30:18;6.45;;;3.28;;
31368;SDS011;18004;48.416;10.066;2024-02-16T06:32:44;4.45;;;3.10;;
31368;SDS011;18004;48.416;10.066;2024-02-16T06:35:10;8.10;;;4.30;;
31368;SDS011;18004;48.416;10.066;2024-02-16T06:37:36;5.38;;;3.97;;
31368;SDS011;18004;48.416;10.066;2024-02-16T06:40:08;10.00;;;3.97;;
31368;SDS011;18004;48.416;10.066;2024-02-16T06:42:35;8.70;;;3.72;;
31368;SDS011;18004;48.416;10.066;2024-02-16T06:45:01;10.77;;;5.25;;
31368;SDS011;18004;48.416;10.066;2024-02-16T06:47:30;7.88;;;4.80;;
31368;SDS011;18004;48.416;10.066;2024-02-16T06:49:56;6.90;;;4.18;;
31368;SDS011;18004;48.416;10.066;2024-02-16T06:52:22;9.45;;;4.95;;
31368;SDS011;18004;48.416;10.066;2024-02-16T06:54:48;9.02;;;5.80;;
31368;SDS011;18004;48.416;10.066;2024-02-16T06:57:15;12.13;;;6.35;;
31368;SDS011;18004;48.416;10.066;2024-02-16T06:59:41;16.08;;;6.88;;
31368;SDS011;18004;48.416;10.066;2024-02-16T07:02:06;10.20;;;5.88;;
31368;SDS011;18004;48.416;10.066;2024-02-16T07:04:32;8.70;;;5.70;;
31368;SDS011;18004;48.416;10.066;2024-02-16T07:06:59;7.63;;;5.07;;
31368;SDS011;18004;48.416;10.066;2024-02-16T07:09:24;11.27;;;5.22;;
31368;SDS011;18004;48.416;10.066;2024-02-16T07:11:50;10.48;;;6.13;;
31368;SDS011;18004;48.416;10.066;2024-02-16T07:14:17;8.85;;;5.88;;
31368;SDS011;18004;48.416;10.066;2024-02-16T07:16:43;11.60;;;6.82;;
31368;SDS011;18004;48.416;10.066;2024-02-16T07:19:09;15.10;;;8.07;;
31368;SDS011;18004;48.416;10.066;2024-02-16T07:21:34;13.93;;;6.68;;
31368;SDS011;18004;48.416;10.066;2024-02-16T07:24:00;11.45;;;6.40;;
31368;SDS011;18004;48.416;10.066;2024-02-16T07:26:27;8.63;;;5.38;;
31368;SDS011;18004;48.416;10.066;2024-02-16T07:28:54;7.30;;;4.68;;
31368;SDS011;18004;48.416;10.066;2024-02-16T07:31:20;10.32;;;4.65;;
31368;SDS011;18004;48.416;10.066;2024-02-16T07:33:45;8.10;;;4.65;;
31368;SDS011;18004;48.416;10.066;2024-02-16T07:36:11;6.53;;;4.22;;
31368;SDS011;18004;48.416;10.066;2024-02-16T07:38:39;10.90;;;5.10;;
31368;SDS011;18004;48.416;10.066;2024-02-16T07:41:04;9.18;;;4.43;;
31368;SDS011;18004;48.416;10.066;2024-02-16T07:43:31;6.03;;;4.03;;
31368;SDS011;18004;48.416;10.066;2024-02-16T07:45:57;13.23;;;4.85;;
31368;SDS011;18004;48.416;10.066;2024-02-16T07:48:22;8.63;;;4.00;;
31368;SDS011;18004;48.416;10.066;2024-02-16T07:50:48;7.93;;;4.72;;
31368;SDS011;18004;48.416;10.066;2024-02-16T07:53:17;8.15;;;4.20;;
31368;SDS011;18004;48.416;10.066;2024-02-16T07:55:43;6.60;;;3.95;;
31368;SDS011;18004;48.416;10.066;2024-02-16T07:58:08;7.80;;;4.70;;
31368;SDS011;18004;48.416;10.066;2024-02-16T08:00:34;8.77;;;5.25;;
31368;SDS011;18004;48.416;10.066;2024-02-16T08:03:00;11.05;;;6.05;;
31368;SDS011;18004;48.416;10.066;2024-02-16T08:05:26;11.57;;;6.05;;
31368;SDS011;18004;48.416;10.066;2024-02-16T08:07:52;14.20;;;6.03;;
31368;SDS011;18004;48.416;10.066;2024-02-16T08:10:19;7.30;;;5.15;;
31368;SDS011;18004;48.416;10.066;2024-02-16T08:12:48;18.27;;;5.50;;
31368;SDS011;18004;48.416;10.066;2024-02-16T08:15:14;8.45;;;4.97;;
31368;SDS011;18004;48.416;10.066;2024-02-16T08:17:40;12.40;;;5.93;;
31368;SDS011;18004;48.416;10.066;2024-02-16T08:20:06;11.50;;;6.25;;
31368;SDS011;18004;48.416;10.066;2024-02-16T08:22:32;8.85;;;6.72;;
31368;SDS011;18004;48.416;10.066;2024-02-16T08:24:59;10.82;;;7.07;;
31368;SDS011;18004;48.416;10.066;2024-02-16T08:27:25;30.85;;;16.40;;
31368;SDS011;18004;48.416;10.066;2024-02-16T08:29:50;27.83;;;23.10;;
31368;SDS011;18004;48.416;10.066;2024-02-16T08:32:19;31.00;;;23.45;;
31368;SDS011;18004;48.416;10.066;2024-02-16T08:34:46;28.85;;;20.42;;
31368;SDS011;18004;48.416;10.066;2024-02-16T08:37:13;16.33;;;10.95;;
31368;SDS011;18004;48.416;10.066;2024-02-16T08:39:39;18.30;;;12.68;;
31368;SDS011;18004;48.416;10.066;2024-02-16T08:42:06;20.55;;;12.15;;
31368;SDS011;18004;48.416;10.066;2024-02-16T08:44:34;13.75;;;9.07;;
31368;SDS011;18004;48.416;10.066;2024-02-16T08:47:00;15.30;;;8.32;;
31368;SDS011;18004;48.416;10.066;2024-02-16T08:49:25;16.23;;;8.75;;
31368;SDS011;18004;48.416;10.066;2024-02-16T08:51:52;11.73;;;7.22;;
31368;SDS011;18004;48.416;10.066;2024-02-16T08:54:17;10.95;;;7.00;;
31368;SDS011;18004;48.416;10.066;2024-02-16T08:56:44;8.65;;;5.50;;
31368;SDS011;18004;48.416;10.066;2024-02-16T08:59:10;18.17;;;6.43;;
31368;SDS011;18004;48.416;10.066;2024-02-16T09:01:37;7.70;;;5.40;;
31368;SDS011;18004;48.416;10.066;2024-02-16T09:04:04;11.32;;;5.65;;
31368;SDS011;18004;48.416;10.066;2024-02-16T09:06:30;9.65;;;6.15;;
31368;SDS011;18004;48.416;10.066;2024-02-16T09:08:56;10.15;;;6.93;;
31368;SDS011;18004;48.416;10.066;2024-02-16T09:11:22;10.93;;;6.22;;
31368;SDS011;18004;48.416;10.066;2024-02-16T09:13:49;10.55;;;7.20;;
31368;SDS011;18004;48.416;10.066;2024-02-16T09:16:14;9.88;;;7.03;;
31368;SDS011;18004;48.416;10.066;2024-02-16T09:18:40;12.88;;;7.57;;
31368;SDS011;18004;48.416;10.066;2024-02-16T09:21:06;11.77;;;5.70;;
31368;SDS011;18004;48.416;10.066;2024-02-16T09:23:33;6.80;;;4.38;;
31368;SDS011;18004;48.416;10.066;2024-02-16T09:26:00;5.82;;;3.75;;
31368;SDS011;18004;48.416;10.066;2024-02-16T09:28:28;10.40;;;3.78;;
31368;SDS011;18004;48.416;10.066;2024-02-16T09:30:55;5.90;;;4.18;;
31368;SDS011;18004;48.416;10.066;2024-02-16T09:33:21;6.72;;;3.63;;
31368;SDS011;18004;48.416;10.066;2024-02-16T09:35:48;8.88;;;3.63;;
31368;SDS011;18004;48.416;10.066;2024-02-16T09:38:14;5.15;;;3.75;;
31368;SDS011;18004;48.416;10.066;2024-02-16T09:40:40;5.30;;;3.47;;
31368;SDS011;18004;48.416;10.066;2024-02-16T09:43:06;5.55;;;4.03;;
31368;SDS011;18004;48.416;10.066;2024-02-16T09:45:32;5.28;;;3.10;;
31368;SDS011;18004;48.416;10.066;2024-02-16T09:47:58;5.65;;;3.22;;
31368;SDS011;18004;48.416;10.066;2024-02-16T09:50:24;5.75;;;3.75;;
31368;SDS011;18004;48.416;10.066;2024-02-16T09:52:52;10.32;;;3.13;;
31368;SDS011;18004;48.416;10.066;2024-02-16T09:55:19;5.05;;;3.60;;
31368;SDS011;18004;48.416;10.066;2024-02-16T09:57:45;4.50;;;3.45;;
31368;SDS011;18004;48.416;10.066;2024-02-16T10:00:11;8.43;;;3.40;;
31368;SDS011;18004;48.416;10.066;2024-02-16T10:02:43;5.22;;;3.55;;
31368;SDS011;18004;48.416;10.066;2024-02-16T10:05:16;5.20;;;3.28;;
31368;SDS011;18004;48.416;10.066;2024-02-16T10:07:44;4.25;;;3.47;;
31368;SDS011;18004;48.416;10.066;2024-02-16T10:10:20;4.28;;;2.85;;
31368;SDS011;18004;48.416;10.066;2024-02-16T10:12:50;6.93;;;3.30;;
31368;SDS011;18004;48.416;10.066;2024-02-16T10:15:33;5.43;;;3.28;;
31368;SDS011;18004;48.416;10.066;2024-02-16T10:18:03;8.80;;;4.38;;
31368;SDS011;18004;48.416;10.066;2024-02-16T10:20:31;6.00;;;3.78;;
31368;SDS011;18004;48.416;10.066;2024-02-16T10:25:29;6.53;;;4.05;;
31368;SDS011;18004;48.416;10.066;2024-02-16T10:27:55;9.50;;;4.00;;
31368;SDS011;18004;48.416;10.066;2024-02-16T10:30:23;8.15;;;4.32;;
31368;SDS011;18004;48.416;10.066;2024-02-16T10:32:54;9.68;;;4.68;;
31368;SDS011;18004;48.416;10.066;2024-02-16T10:35:19;8.55;;;3.97;;
31368;SDS011;18004;48.416;10.066;2024-02-16T10:37:49;9.63;;;3.40;;
31368;SDS011;18004;48.416;10.066;2024-02-16T10:40:15;7.95;;;3.83;;
31368;SDS011;18004;48.416;10.066;2024-02-16T10:42:47;10.57;;;4.07;;
31368;SDS011;18004;48.416;10.066;2024-02-16T10:45:14;5.82;;;3.63;;
31368;SDS011;18004;48.416;10.066;2024-02-16T10:47:41;20.83;;;5.50;;
31368;SDS011;18004;48.416;10.066;2024-02-16T10:50:07;4.40;;;3.25;;
31368;SDS011;18004;48.416;10.066;2024-02-16T10:52:35;5.82;;;3.75;;
31368;SDS011;18004;48.416;10.066;2024-02-16T10:55:04;4.75;;;2.85;;
31368;SDS011;18004;48.416;10.066;2024-02-16T10:57:30;5.95;;;3.13;;
31368;SDS011;18004;48.416;10.066;2024-02-16T10:59:58;6.85;;;3.20;;
31368;SDS011;18004;48.416;10.066;2024-02-16T11:02:24;4.75;;;3.63;;
31368;SDS011;18004;48.416;10.066;2024-02-16T11:04:52;6.90;;;3.75;;
31368;SDS011;18004;48.416;10.066;2024-02-16T11:07:18;6.95;;;4.80;;
31368;SDS011;18004;48.416;10.066;2024-02-16T11:09:45;9.43;;;3.75;;
31368;SDS011;18004;48.416;10.066;2024-02-16T11:12:12;6.25;;;3.95;;
31368;SDS011;18004;48.416;10.066;2024-02-16T11:14:41;6.80;;;3.38;;
31368;SDS011;18004;48.416;10.066;2024-02-16T11:17:08;5.80;;;4.28;;
31368;SDS011;18004;48.416;10.066;2024-02-16T11:19:41;5.90;;;3.30;;
31368;SDS011;18004;48.416;10.066;2024-02-16T11:22:09;5.10;;;3.63;;
31368;SDS011;18004;48.416;10.066;2024-02-16T11:24:36;5.53;;;3.65;;
31368;SDS011;18004;48.416;10.066;2024-02-16T11:27:07;7.28;;;3.20;;
31368;SDS011;18004;48.416;10.066;2024-02-16T11:29:35;4.47;;;2.80;;
31368;SDS011;18004;48.416;10.066;2024-02-16T11:32:02;9.98;;;5.47;;
31368;SDS011;18004;48.416;10.066;2024-02-16T11:34:28;7.75;;;4.28;;
31368;SDS011;18004;48.416;10.066;2024-02-16T11:36:55;7.80;;;4.03;;
31368;SDS011;18004;48.416;10.066;2024-02-16T11:39:23;8.30;;;2.80;;
31368;SDS011;18004;48.416;10.066;2024-02-16T11:42:06;4.28;;;2.42;;
31368;SDS011;18004;48.416;10.066;2024-02-16T11:44:37;2.58;;;2.05;;
31368;SDS011;18004;48.416;10.066;2024-02-16T11:47:08;3.53;;;2.38;;
31368;SDS011;18004;48.416;10.066;2024-02-16T11:49:37;5.95;;;2.15;;
31368;SDS011;18004;48.416;10.066;2024-02-16T11:52:04;3.58;;;2.42;;
31368;SDS011;18004;48.416;10.066;2024-02-16T11:54:30;6.50;;;3.70;;
31368;SDS011;18004;48.416;10.066;2024-02-16T11:56:57;8.68;;;4.55;;
31368;SDS011;18004;48.416;10.066;2024-02-16T11:59:23;5.65;;;3.05;;
31368;SDS011;18004;48.416;10.066;2024-02-16T12:04:23;7.82;;;3.55;;
31368;SDS011;18004;48.416;10.066;2024-02-16T12:06:59;4.87;;;2.33;;
31368;SDS011;18004;48.416;10.066;2024-02-16T12:09:26;5.55;;;2.28;;
31368;SDS011;18004;48.416;10.066;2024-02-16T12:11:53;6.93;;;3.30;;
31368;SDS011;18004;48.416;10.066;2024-02-16T12:14:21;4.57;;;2.97;;
31368;SDS011;18004;48.416;10.066;2024-02-16T12:16:50;11.75;;;3.65;;
31368;SDS011;18004;48.416;10.066;2024-02-16T12:19:20;14.07;;;3.25;;
31368;SDS011;18004;48.416;10.066;2024-02-16T12:21:53;9.80;;;4.40;;
31368;SDS011;18004;48.416;10.066;2024-02-16T12:24:23;13.60;;;4.65;;
31368;SDS011;18004;48.416;10.066;2024-02-16T12:26:50;5.15;;;2.67;;
31368;SDS011;18004;48.416;10.066;2024-02-16T12:29:16;7.00;;;4.03;;
31368;SDS011;18004;48.416;10.066;2024-02-16T12:31:42;23.63;;;8.82;;
31368;SDS011;18004;48.416;10.066;2024-02-16T12:34:09;9.27;;;4.72;;
31368;SDS011;18004;48.416;10.066;2024-02-16T12:36:39;10.48;;;4.15;;
31368;SDS011;18004;48.416;10.066;2024-02-16T12:39:08;5.95;;;2.40;;
31368;SDS011;18004;48.416;10.066;2024-02-16T12:41:37;3.00;;;2.28;;
31368;SDS011;18004;48.416;10.066;2024-02-16T12:44:04;4.07;;;2.35;;
31368;SDS011;18004;48.416;10.066;2024-02-16T12:46:31;5.38;;;2.55;;
31368;SDS011;18004;48.416;10.066;2024-02-16T12:48:57;8.65;;;3.40;;
31368;SDS011;18004;48.416;10.066;2024-02-16T12:51:23;4.82;;;3.08;;
31368;SDS011;18004;48.416;10.066;2024-02-16T12:53:48;14.63;;;9.10;;
31368;SDS011;18004;48.416;10.066;2024-02-16T12:56:14;22.58;;;11.32;;
31368;SDS011;18004;48.416;10.066;2024-02-16T12:58:40;19.33;;;8.20;;
31368;SDS011;18004;48.416;10.066;2024-02-16T13:01:06;19.23;;;7.45;;
31368;SDS011;18004;48.416;10.066;2024-02-16T13:03:36;17.55;;;6.13;;
31368;SDS011;18004;48.416;10.066;2024-02-16T13:06:02;12.50;;;4.70;;
31368;SDS011;18004;48.416;10.066;2024-02-16T13:08:29;6.90;;;4.35;;
31368;SDS011;18004;48.416;10.066;2024-02-16T13:10:55;12.80;;;5.75;;
31368;SDS011;18004;48.416;10.066;2024-02-16T13:13:21;15.95;;;6.95;;
31368;SDS011;18004;48.416;10.066;2024-02-16T13:15:48;13.23;;;6.80;;
31368;SDS011;18004;48.416;10.066;2024-02-16T13:18:14;10.77;;;5.93;;
31368;SDS011;18004;48.416;10.066;2024-02-16T13:20:40;14.95;;;4.93;;
31368;SDS011;18004;48.416;10.066;2024-02-16T13:23:06;11.07;;;5.00;;
31368;SDS011;18004;48.416;10.066;2024-02-16T13:25:32;8.75;;;5.00;;
31368;SDS011;18004;48.416;10.066;2024-02-16T13:27:57;18.02;;;4.97;;
31368;SDS011;18004;48.416;10.066;2024-02-16T13:30:25;7.60;;;3.05;;
31368;SDS011;18004;48.416;10.066;2024-02-16T13:32:53;11.52;;;3.83;;
31368;SDS011;18004;48.416;10.066;2024-02-16T13:35:19;13.73;;;4.28;;
31368;SDS011;18004;48.416;10.066;2024-02-16T13:37:45;6.35;;;3.22;;
31368;SDS011;18004;48.416;10.066;2024-02-16T13:40:10;11.93;;;6.53;;
31368;SDS011;18004;48.416;10.066;2024-02-16T13:42:40;17.70;;;8.75;;
31368;SDS011;18004;48.416;10.066;2024-02-16T13:45:10;10.48;;;4.72;;
31368;SDS011;18004;48.416;10.066;2024-02-16T13:47:36;14.80;;;4.45;;
31368;SDS011;18004;48.416;10.066;2024-02-16T13:50:05;9.57;;;4.32;;
31368;SDS011;18004;48.416;10.066;2024-02-16T13:52:32;6.80;;;2.92;;
31368;SDS011;18004;48.416;10.066;2024-02-16T13:54:59;5.70;;;2.60;;
31368;SDS011;18004;48.416;10.066;2024-02-16T13:57:25;4.35;;;1.85;;
31368;SDS011;18004;48.416;10.066;2024-02-16T13:59:51;5.10;;;2.00;;
31368;SDS011;18004;48.416;10.066;2024-02-16T14:02:16;6.85;;;2.35;;
31368;SDS011;18004;48.416;10.066;2024-02-16T14:04:43;8.07;;;3.33;;
31368;SDS011;18004;48.416;10.066;2024-02-16T14:07:09;4.68;;;2.33;;
31368;SDS011;18004;48.416;10.066;2024-02-16T14:09:35;6.25;;;3.22;;
31368;SDS011;18004;48.416;10.066;2024-02-16T14:12:00;5.00;;;2.55;;
31368;SDS011;18004;48.416;10.066;2024-02-16T14:14:27;3.83;;;2.33;;
31368;SDS011;18004;48.416;10.066;2024-02-16T14:16:53;11.30;;;2.38;;
31368;SDS011;18004;48.416;10.066;2024-02-16T14:19:19;10.90;;;3.15;;
31368;SDS011;18004;48.416;10.066;2024-02-16T14:21:45;8.35;;;2.30;;
31368;SDS011;18004;48.416;10.066;2024-02-16T14:24:15;6.95;;;3.67;;
31368;SDS011;18004;48.416;10.066;2024-02-16T14:29:09;5.03;;;2.45;;
31368;SDS011;18004;48.416;10.066;2024-02-16T14:31:36;7.80;;;2.63;;
31368;SDS011;18004;48.416;10.066;2024-02-16T14:34:01;7.18;;;2.88;;